Time;durP1;ratioP1;P1;durP2;ratioP2;P2;SDS_P1;SDS_P2;PMS_P1;PMS_P2;Temp;Humidity;BMP_temperature;BMP_pressure;BME280_temperature;BME280_humidity;BME280_pressure;Samples;Min_cycle;Max_cycle;Signal;HPM_P1;HPM_P2
2021/04/29 00:01:43;;;;;;;8.30;5.90;;;14.00;99.90;;;;;;5170938;27;20167;-80
2021/04/29 00:04:10;;;;;;;8.80;7.10;;;14.30;99.90;;;;;;5169712;27;20390;-80
2021/04/29 00:06:36;;;;;;;15.13;7.23;;;14.00;99.90;;;;;;5151730;27;20382;-80
2021/04/29 00:09:04;;;;;;;7.70;5.03;;;14.00;99.90;;;;;;5151994;27;20425;-80
2021/04/29 00:11:32;;;;;;;7.20;5.97;;;14.20;99.90;;;;;;5169594;27;20427;-79
2021/04/29 00:13:58;;;;;;;7.40;5.50;;;14.30;99.90;;;;;;5170169;27;20480;-80
2021/04/29 00:16:24;;;;;;;8.57;5.27;;;14.20;99.90;;;;;;5170393;27;20390;-79
2021/04/29 00:18:50;;;;;;;6.90;6.20;;;14.10;99.90;;;;;;5169841;27;20488;-80
2021/04/29 00:21:16;;;;;;;9.83;6.67;;;14.10;99.90;;;;;;5170321;27;20157;-79
2021/04/29 00:23:42;;;;;;;7.80;5.60;;;13.90;99.90;;;;;;5170524;27;20389;-79
2021/04/29 00:26:08;;;;;;;7.67;6.20;;;14.10;99.90;;;;;;5170039;27;20496;-79
2021/04/29 00:28:33;;;;;;;6.70;6.00;;;13.90;99.90;;;;;;5170612;27;20221;-79
2021/04/29 00:30:59;;;;;;;6.37;5.87;;;13.70;99.90;;;;;;5172720;27;20213;-79
2021/04/29 00:33:25;;;;;;;14.77;7.60;;;14.00;99.90;;;;;;5173100;27;20292;-79
2021/04/29 00:35:51;;;;;;;8.30;6.63;;;14.00;99.90;;;;;;5172469;27;20165;-79
2021/04/29 00:38:17;;;;;;;13.17;7.30;;;13.90;99.90;;;;;;5153021;27;20478;-79
2021/04/29 00:40:43;;;;;;;7.40;5.70;;;14.10;99.90;;;;;;5170001;27;20414;-79
2021/04/29 00:43:11;;;;;;;10.30;7.17;;;13.90;99.90;;;;;;5169759;27;20269;-80
2021/04/29 00:45:37;;;;;;;6.93;5.77;;;13.80;99.90;;;;;;5170058;27;20389;-79
2021/04/29 00:48:03;;;;;;;8.37;7.07;;;13.70;99.90;;;;;;5151752;27;20390;-80
2021/04/29 00:50:29;;;;;;;10.40;6.00;;;13.80;99.90;;;;;;5170148;27;20176;-79
2021/04/29 00:52:54;;;;;;;8.83;5.83;;;13.90;99.90;;;;;;5169913;27;20390;-79
2021/04/29 00:55:20;;;;;;;9.87;6.07;;;13.70;99.90;;;;;;5170247;27;20171;-80
2021/04/29 00:57:46;;;;;;;7.77;6.30;;;13.60;99.90;;;;;;5169841;27;20192;-79
2021/04/29 01:00:13;;;;;;;7.70;5.13;;;13.50;99.90;;;;;;5171177;27;20192;-80
2021/04/29 01:02:44;;;;;;;5.87;5.27;;;13.50;99.90;;;;;;5152700;27;20164;-80
2021/04/29 01:05:18;;;;;;;5.93;5.27;;;13.50;99.90;;;;;;5171133;27;20398;-79
2021/04/29 01:07:51;;;;;;;7.37;6.57;;;13.50;99.90;;;;;;5169835;27;20815;-79
2021/04/29 01:10:25;;;;;;;7.40;5.77;;;13.50;99.90;;;;;;5170774;27;20454;-79
2021/04/29 01:13:03;;;;;;;6.77;5.60;;;13.50;99.90;;;;;;5169579;27;20500;-79
2021/04/29 01:15:30;;;;;;;7.07;5.43;;;13.50;99.90;;;;;;5169769;27;20386;-79
2021/04/29 01:17:57;;;;;;;5.47;4.87;;;13.40;99.90;;;;;;5170215;27;20853;-79
2021/04/29 01:20:35;;;;;;;6.17;5.57;;;13.40;99.90;;;;;;5169444;27;20446;-79
2021/04/29 01:23:26;;;;;;;6.77;5.63;;;13.60;99.90;;;;;;5169831;27;20382;-79
2021/04/29 01:25:59;;;;;;;9.10;5.73;;;13.50;99.90;;;;;;5151261;27;20399;-79
2021/04/29 01:28:28;;;;;;;10.00;5.50;;;13.40;99.90;;;;;;5170214;27;20386;-79
2021/04/29 01:30:57;;;;;;;7.00;5.77;;;13.40;99.90;;;;;;5151918;27;20400;-79
2021/04/29 01:33:24;;;;;;;11.57;8.17;;;13.40;99.90;;;;;;5170084;27;20395;-79
2021/04/29 01:35:51;;;;;;;7.33;6.40;;;13.40;99.90;;;;;;5169880;27;20413;-79
2021/04/29 01:38:17;;;;;;;10.90;6.10;;;13.30;99.90;;;;;;5170136;27;20387;-79
2021/04/29 01:40:44;;;;;;;8.13;5.90;;;13.30;99.90;;;;;;5170729;27;20382;-79
2021/04/29 01:43:09;;;;;;;6.67;5.97;;;13.30;99.90;;;;;;5170620;27;20445;-79
2021/04/29 01:45:36;;;;;;;6.80;5.30;;;13.40;99.90;;;;;;5172802;27;20405;-78
2021/04/29 01:48:03;;;;;;;9.13;5.93;;;13.40;99.90;;;;;;5179635;27;20157;-79
2021/04/29 01:50:29;;;;;;;13.03;6.23;;;13.30;99.90;;;;;;5180548;27;20437;-79
2021/04/29 01:52:57;;;;;;;9.40;5.30;;;13.20;99.90;;;;;;5162823;27;20423;-79
2021/04/29 01:55:23;;;;;;;5.93;5.27;;;13.10;99.90;;;;;;5162650;27;20406;-77
2021/04/29 01:57:52;;;;;;;7.23;6.53;;;13.10;99.90;;;;;;5162451;27;20410;-79
2021/04/29 02:00:19;;;;;;;7.30;6.57;;;13.00;99.90;;;;;;5170912;27;20922;-79
2021/04/29 02:02:45;;;;;;;5.83;5.43;;;13.10;99.90;;;;;;5171053;27;20398;-79
2021/04/29 02:05:12;;;;;;;6.43;5.83;;;13.10;99.90;;;;;;5170653;27;20398;-79
2021/04/29 02:07:37;;;;;;;7.30;5.80;;;13.20;99.90;;;;;;5157354;27;20180;-78
2021/04/29 02:10:05;;;;;;;10.93;6.37;;;13.10;99.90;;;;;;5162280;27;20413;-79
2021/04/29 02:12:37;;;;;;;9.03;6.90;;;13.10;99.90;;;;;;5180180;27;20187;-78
2021/04/29 02:15:08;;;;;;;10.00;6.50;;;13.00;99.90;;;;;;5179982;27;20472;-78
2021/04/29 02:17:43;;;;;;;10.17;7.03;;;12.80;99.90;;;;;;5153578;27;20394;-79
2021/04/29 02:20:12;;;;;;;11.23;7.40;;;12.70;99.90;;;;;;5152392;27;20489;-79
2021/04/29 02:22:41;;;;;;;9.70;7.00;;;12.50;99.90;;;;;;5151467;27;20394;-79
2021/04/29 02:25:10;;;;;;;9.00;6.80;;;12.40;99.90;;;;;;5151486;27;20398;-79
2021/04/29 02:27:37;;;;;;;9.27;8.33;;;12.30;99.90;;;;;;5169611;27;20455;-79
2021/04/29 02:30:08;;;;;;;10.40;7.00;;;12.20;99.90;;;;;;5151407;27;20394;-79
2021/04/29 02:32:35;;;;;;;9.90;8.10;;;12.30;99.90;;;;;;5151113;27;20400;-79
2021/04/29 02:35:05;;;;;;;12.67;8.93;;;12.30;99.90;;;;;;5171976;27;20397;-79
2021/04/29 02:37:31;;;;;;;9.10;8.17;;;12.30;99.90;;;;;;5173110;27;20393;-79
2021/04/29 02:39:58;;;;;;;8.70;7.10;;;12.30;99.90;;;;;;5154226;27;20565;-79
2021/04/29 02:42:24;;;;;;;9.13;7.70;;;12.40;99.90;;;;;;5160044;27;20509;-79
2021/04/29 02:44:50;;;;;;;8.53;7.57;;;12.30;99.90;;;;;;5151860;27;20391;-79
2021/04/29 02:47:16;;;;;;;9.40;6.67;;;12.30;99.90;;;;;;5152563;27;20177;-79
2021/04/29 02:49:42;;;;;;;9.93;7.93;;;12.40;99.90;;;;;;5152460;27;20175;-79
2021/04/29 02:52:11;;;;;;;12.63;8.97;;;12.30;99.90;;;;;;5152080;27;20806;-79
2021/04/29 02:54:37;;;;;;;17.43;8.07;;;12.40;99.90;;;;;;5133222;27;20161;-79
2021/04/29 02:57:03;;;;;;;10.40;7.50;;;12.50;99.90;;;;;;5152630;27;20387;-79
2021/04/29 02:59:29;;;;;;;10.67;8.67;;;12.40;99.90;;;;;;5134093;27;20280;-79
2021/04/29 03:01:55;;;;;;;8.93;8.23;;;12.70;99.90;;;;;;5151393;27;20383;-79
2021/04/29 03:04:21;;;;;;;8.77;7.87;;;12.70;99.90;;;;;;5151585;27;20413;-79
2021/04/29 03:06:47;;;;;;;12.77;8.53;;;12.80;99.90;;;;;;5151930;27;20164;-78
2021/04/29 03:09:12;;;;;;;9.80;8.33;;;12.60;99.90;;;;;;5151603;27;20205;-79
2021/04/29 03:11:38;;;;;;;13.80;10.77;;;12.50;99.90;;;;;;5152063;27;20153;-79
2021/04/29 03:14:05;;;;;;;11.80;7.70;;;12.50;99.90;;;;;;5152035;27;20169;-79
2021/04/29 03:16:31;;;;;;;10.07;9.17;;;12.50;99.90;;;;;;5133574;27;20165;-79
2021/04/29 03:18:57;;;;;;;18.00;9.63;;;12.50;99.90;;;;;;5150745;27;20470;-79
2021/04/29 03:21:22;;;;;;;10.33;9.33;;;12.60;99.90;;;;;;5133759;27;20394;-79
2021/04/29 03:23:48;;;;;;;8.97;8.07;;;12.70;99.90;;;;;;5151787;27;20392;-79
2021/04/29 03:26:14;;;;;;;13.40;9.13;;;12.60;99.90;;;;;;5151733;27;20230;-79
2021/04/29 03:28:40;;;;;;;8.80;8.00;;;12.60;99.90;;;;;;5151338;27;20164;-79
2021/04/29 03:31:06;;;;;;;8.43;7.03;;;12.60;99.90;;;;;;5133373;27;20169;-79
2021/04/29 03:33:31;;;;;;;12.03;8.20;;;12.50;99.90;;;;;;5151427;27;20169;-79
2021/04/29 03:35:57;;;;;;;11.23;10.03;;;12.60;99.90;;;;;;5151893;27;20161;-79
2021/04/29 03:38:23;;;;;;;11.87;7.80;;;12.60;99.90;;;;;;5151660;27;20162;-79
2021/04/29 03:40:49;;;;;;;9.20;8.40;;;12.60;99.90;;;;;;5153495;27;20158;-79
2021/04/29 03:43:15;;;;;;;12.13;9.13;;;12.70;99.90;;;;;;5173565;27;20212;-79
2021/04/29 03:45:40;;;;;;;8.13;7.43;;;12.80;99.90;;;;;;5171590;27;20168;-79
2021/04/29 03:48:06;;;;;;;16.67;9.30;;;12.80;99.90;;;;;;5171840;27;20157;-79
2021/04/29 03:50:32;;;;;;;10.50;8.70;;;12.80;99.90;;;;;;5171919;27;20172;-79
2021/04/29 03:52:58;;;;;;;11.07;9.17;;;12.80;99.90;;;;;;5172073;27;20394;-79
2021/04/29 03:55:24;;;;;;;10.90;8.60;;;13.00;99.90;;;;;;5172228;27;20161;-79
2021/04/29 03:57:50;;;;;;;9.53;8.27;;;13.10;99.90;;;;;;5171772;27;20161;-79
2021/04/29 04:00:16;;;;;;;9.17;8.30;;;13.30;99.90;;;;;;5171633;27;20295;-79
2021/04/29 04:02:42;;;;;;;9.17;8.20;;;13.00;99.90;;;;;;5171648;27;20397;-79
2021/04/29 04:05:08;;;;;;;8.97;8.03;;;12.80;99.90;;;;;;5171235;27;20398;-79
2021/04/29 04:07:34;;;;;;;14.10;9.33;;;12.70;99.90;;;;;;5171601;27;20456;-79
2021/04/29 04:10:00;;;;;;;9.93;8.10;;;12.60;99.90;;;;;;5153741;27;20386;-79
2021/04/29 04:12:26;;;;;;;9.50;8.20;;;12.60;99.90;;;;;;5172219;27;20418;-79
2021/04/29 04:14:52;;;;;;;9.23;8.20;;;12.70;99.90;;;;;;5153203;27;20450;-79
2021/04/29 04:17:18;;;;;;;11.40;8.97;;;12.90;99.90;;;;;;5172919;27;20385;-79
2021/04/29 04:19:44;;;;;;;10.93;9.53;;;12.80;99.90;;;;;;5154202;27;20311;-79
2021/04/29 04:22:10;;;;;;;8.73;8.00;;;12.70;99.90;;;;;;5172736;27;20161;-79
2021/04/29 04:24:35;;;;;;;10.13;8.17;;;12.60;99.90;;;;;;5171606;27;20160;-79
2021/04/29 04:27:01;;;;;;;16.80;9.20;;;12.70;99.90;;;;;;5153981;27;20181;-79
2021/04/29 04:29:27;;;;;;;9.13;7.97;;;12.70;99.90;;;;;;5171777;27;20577;-79
2021/04/29 04:31:53;;;;;;;9.90;8.50;;;12.90;99.90;;;;;;5171942;27;20164;-79
2021/04/29 04:34:18;;;;;;;8.87;7.83;;;12.70;99.90;;;;;;5172210;27;20156;-79
2021/04/29 04:36:44;;;;;;;8.40;7.60;;;13.00;99.90;;;;;;5154940;27;20157;-79
2021/04/29 04:39:10;;;;;;;10.30;9.37;;;13.10;99.90;;;;;;5172692;27;20574;-79
2021/04/29 04:41:36;;;;;;;12.83;8.87;;;13.20;99.90;;;;;;5172781;27;20217;-79
2021/04/29 04:44:02;;;;;;;9.60;8.77;;;13.30;99.90;;;;;;5172368;27;20168;-79
2021/04/29 04:46:28;;;;;;;10.00;8.53;;;13.30;99.90;;;;;;5173662;27;20165;-79
2021/04/29 04:48:53;;;;;;;8.37;7.60;;;13.20;99.90;;;;;;5173532;27;20398;-79
2021/04/29 04:51:22;;;;;;;14.17;8.40;;;13.30;99.90;;;;;;5126562;27;20295;-79
2021/04/29 04:53:48;;;;;;;12.23;9.63;;;13.20;99.90;;;;;;5163254;27;20176;-78
2021/04/29 04:56:14;;;;;;;14.63;10.07;;;12.70;99.90;;;;;;5180294;27;20494;-79
2021/04/29 04:58:40;;;;;;;10.90;9.47;;;12.60;99.90;;;;;;5179795;27;20465;-79
2021/04/29 05:01:06;;;;;;;10.10;9.10;;;12.50;99.90;;;;;;5179688;27;20153;-79
2021/04/29 05:03:31;;;;;;;10.83;9.80;;;12.60;99.90;;;;;;5179266;27;20173;-79
2021/04/29 05:05:57;;;;;;;10.07;9.03;;;12.70;99.90;;;;;;5171488;27;20157;-79
2021/04/29 05:08:23;;;;;;;8.93;8.03;;;13.00;99.90;;;;;;5171277;27;20277;-79
2021/04/29 05:10:49;;;;;;;10.57;8.77;;;13.00;99.90;;;;;;5171173;27;20187;-79
2021/04/29 05:13:15;;;;;;;14.20;9.20;;;12.80;99.90;;;;;;5152365;27;20390;-79
2021/04/29 05:15:41;;;;;;;9.83;8.83;;;12.80;99.90;;;;;;5171349;27;20676;-79
2021/04/29 05:18:07;;;;;;;16.07;10.37;;;12.60;99.90;;;;;;5170594;27;20168;-79
2021/04/29 05:20:34;;;;;;;11.30;10.20;;;12.70;99.90;;;;;;5170941;27;20197;-79
2021/04/29 05:23:00;;;;;;;19.20;10.30;;;12.90;99.90;;;;;;5171729;27;20176;-79
2021/04/29 05:25:26;;;;;;;9.20;8.30;;;12.90;99.90;;;;;;5170814;27;20723;-79
2021/04/29 05:27:53;;;;;;;10.00;9.00;;;12.60;99.90;;;;;;5152730;27;20397;-79
2021/04/29 05:30:20;;;;;;;9.20;8.27;;;12.70;99.90;;;;;;5170450;27;20169;-79
2021/04/29 05:32:47;;;;;;;14.93;11.07;;;12.60;99.90;;;;;;5171019;27;20489;-79
2021/04/29 05:35:14;;;;;;;12.60;9.47;;;12.60;99.90;;;;;;5162505;27;20430;-79
2021/04/29 05:37:40;;;;;;;12.13;9.40;;;12.70;99.90;;;;;;5143802;28;20418;-79
2021/04/29 05:40:06;;;;;;;11.93;10.70;;;13.00;99.90;;;;;;5150181;28;20451;-79
2021/04/29 05:42:32;;;;;;;10.37;9.20;;;12.90;99.90;;;;;;5130355;28;20624;-79
2021/04/29 05:44:58;;;;;;;11.57;9.10;;;13.10;99.90;;;;;;5145909;28;20415;-79
2021/04/29 05:47:24;;;;;;;11.30;9.43;;;13.00;99.90;;;;;;5150679;28;20153;-79
2021/04/29 05:49:50;;;;;;;12.63;9.80;;;13.10;99.90;;;;;;5132468;28;20187;-79
2021/04/29 05:52:15;;;;;;;10.83;9.70;;;13.20;99.90;;;;;;5153108;27;20180;-79
2021/04/29 05:54:41;;;;;;;10.97;8.90;;;13.10;99.90;;;;;;5146915;27;20181;-79
2021/04/29 05:57:07;;;;;;;10.13;9.07;;;12.80;99.90;;;;;;5155425;28;20181;-79
2021/04/29 05:59:33;;;;;;;10.07;8.90;;;12.80;99.90;;;;;;5157329;27;20197;-78
2021/04/29 06:01:58;;;;;;;10.87;8.60;;;13.00;99.90;;;;;;5171261;27;20162;-78
2021/04/29 06:04:24;;;;;;;10.33;8.70;;;12.90;99.90;;;;;;5161945;27;20172;-78
2021/04/29 06:06:50;;;;;;;9.03;7.63;;;13.10;99.90;;;;;;5151927;28;20195;-79
2021/04/29 06:09:17;;;;;;;13.47;7.43;;;13.20;99.90;;;;;;5160506;27;20184;-78
2021/04/29 06:11:43;;;;;;;9.47;7.83;;;13.20;99.90;;;;;;5139212;27;20178;-78
2021/04/29 06:14:12;;;;;;;10.73;7.23;;;13.20;99.90;;;;;;5155725;27;20402;-79
2021/04/29 06:16:39;;;;;;;8.87;7.97;;;13.20;99.90;;;;;;5161435;27;20406;-78
2021/04/29 06:19:06;;;;;;;7.50;6.53;;;13.20;99.90;;;;;;5170119;27;20452;-78
2021/04/29 06:21:32;;;;;;;10.13;7.70;;;13.40;99.90;;;;;;5160556;27;20410;-78
2021/04/29 06:23:57;;;;;;;9.20;6.80;;;13.30;99.90;;;;;;5159217;27;20418;-78
2021/04/29 06:26:23;;;;;;;8.17;7.40;;;13.30;99.90;;;;;;5159607;27;20422;-79
2021/04/29 06:28:49;;;;;;;6.50;5.90;;;13.20;99.90;;;;;;5136628;27;20155;-79
2021/04/29 06:31:15;;;;;;;7.30;6.13;;;13.20;99.90;;;;;;5153778;27;20181;-77
2021/04/29 06:33:41;;;;;;;8.33;6.90;;;13.40;99.90;;;;;;5157293;27;20541;-80
2021/04/29 06:36:07;;;;;;;7.13;5.90;;;13.50;99.90;;;;;;5166355;27;20478;-79
2021/04/29 06:38:35;;;;;;;6.27;5.77;;;13.50;99.90;;;;;;5164924;27;20183;-79
2021/04/29 06:41:01;;;;;;;10.47;6.20;;;13.40;99.90;;;;;;5157490;27;20392;-79
2021/04/29 06:43:28;;;;;;;6.27;5.50;;;13.60;99.90;;;;;;5156298;27;20493;-79
2021/04/29 06:45:54;;;;;;;7.90;5.70;;;13.70;99.90;;;;;;5134923;27;20476;-79
2021/04/29 06:48:20;;;;;;;5.37;4.87;;;13.80;99.90;;;;;;5145298;27;20921;-80
2021/04/29 06:50:46;;;;;;;4.70;4.30;;;13.80;99.90;;;;;;5137262;27;20181;-78
2021/04/29 06:53:12;;;;;;;6.93;4.50;;;13.90;99.90;;;;;;5147219;27;20790;-79
2021/04/29 06:55:38;;;;;;;6.23;4.40;;;13.90;99.90;;;;;;5146260;27;20185;-80
2021/04/29 06:58:04;;;;;;;5.57;5.07;;;13.80;99.90;;;;;;5144827;27;20174;-79
2021/04/29 07:00:30;;;;;;;9.53;5.60;;;14.10;99.90;;;;;;5143970;27;20204;-79
2021/04/29 07:02:56;;;;;;;8.70;6.17;;;13.90;99.90;;;;;;5146001;27;20168;-80
2021/04/29 07:05:23;;;;;;;6.33;5.73;;;13.60;99.90;;;;;;5131714;27;20476;-80
2021/04/29 07:07:51;;;;;;;7.60;5.20;;;13.50;99.90;;;;;;5124856;27;20506;-80
2021/04/29 07:10:21;;;;;;;5.70;5.20;;;13.50;99.90;;;;;;5141200;27;20436;-80
2021/04/29 07:12:47;;;;;;;4.87;4.37;;;13.50;99.90;;;;;;5150062;27;20426;-79
2021/04/29 07:15:14;;;;;;;4.60;4.13;;;13.60;99.90;;;;;;5114473;27;20419;-79
2021/04/29 07:17:41;;;;;;;5.70;4.70;;;13.90;99.90;;;;;;5126982;27;20431;-79
2021/04/29 07:20:08;;;;;;;7.93;5.00;;;13.90;99.90;;;;;;5137137;27;20435;-79
2021/04/29 07:22:34;;;;;;;8.40;4.77;;;13.90;99.90;;;;;;5136677;27;20430;-78
2021/04/29 07:25:00;;;;;;;4.43;4.03;;;14.30;99.90;;;;;;5145198;27;20487;-78
2021/04/29 07:27:26;;;;;;;6.23;4.80;;;14.40;99.90;;;;;;5106456;27;20236;-79
2021/04/29 07:29:51;;;;;;;5.97;4.57;;;14.50;99.90;;;;;;5138786;27;20184;-79
2021/04/29 07:32:17;;;;;;;9.60;5.60;;;14.60;99.90;;;;;;5123085;27;20282;-78
2021/04/29 07:34:43;;;;;;;5.50;4.03;;;14.80;99.90;;;;;;5126771;27;20182;-78
2021/04/29 07:37:09;;;;;;;6.73;5.10;;;14.90;99.90;;;;;;5127568;27;20202;-79
2021/04/29 07:39:35;;;;;;;11.73;4.40;;;14.90;99.90;;;;;;5137711;27;20204;-79
2021/04/29 07:42:01;;;;;;;5.60;4.20;;;14.70;99.90;;;;;;5143776;27;20216;-79
2021/04/29 07:44:27;;;;;;;5.50;4.80;;;14.70;99.90;;;;;;5144370;27;20415;-79
2021/04/29 07:46:53;;;;;;;12.80;5.10;;;14.90;99.90;;;;;;5146180;27;20429;-79
2021/04/29 07:49:19;;;;;;;4.70;4.30;;;14.80;99.90;;;;;;5144463;27;20461;-79
2021/04/29 07:51:45;;;;;;;7.00;4.70;;;14.90;99.90;;;;;;5154209;27;20173;-79
2021/04/29 07:54:14;;;;;;;4.33;3.93;;;14.80;99.90;;;;;;5158071;27;20268;-79
2021/04/29 07:56:41;;;;;;;7.87;5.60;;;14.90;99.90;;;;;;5149459;27;20473;-78
2021/04/29 07:59:06;;;;;;;6.27;5.67;;;15.00;99.90;;;;;;5134903;27;20550;-78
2021/04/29 08:01:32;;;;;;;9.80;4.90;;;15.10;99.90;;;;;;5153423;27;20403;-79
2021/04/29 08:04:01;;;;;;;8.80;5.73;;;15.30;99.90;;;;;;5152760;27;20462;-78
2021/04/29 08:06:28;;;;;;;6.30;5.47;;;15.30;99.90;;;;;;5160441;27;20202;-78
2021/04/29 08:08:55;;;;;;;5.97;5.20;;;15.20;99.90;;;;;;5133207;27;20446;-79
2021/04/29 08:11:20;;;;;;;5.20;4.63;;;15.10;99.90;;;;;;5159959;27;20435;-79
2021/04/29 08:13:46;;;;;;;6.10;5.30;;;15.00;99.90;;;;;;5140754;27;20411;-79
2021/04/29 08:16:12;;;;;;;5.10;4.20;;;15.00;99.90;;;;;;5139681;27;20173;-78
2021/04/29 08:18:38;;;;;;;9.30;4.77;;;15.30;99.90;;;;;;5161825;27;20200;-79
2021/04/29 08:21:05;;;;;;;4.20;3.80;;;15.30;99.90;;;;;;5151692;27;20411;-79
2021/04/29 08:23:31;;;;;;;6.00;4.60;;;15.50;99.90;;;;;;5149135;27;20162;-80
2021/04/29 08:26:01;;;;;;;8.83;4.70;;;15.40;99.90;;;;;;5113543;28;20410;-80
2021/04/29 08:28:27;;;;;;;7.97;4.20;;;15.30;99.90;;;;;;5147546;27;20433;-80
2021/04/29 08:30:53;;;;;;;7.10;4.20;;;15.30;99.90;;;;;;5145563;27;20427;-80
2021/04/29 08:33:19;;;;;;;8.57;5.07;;;15.40;99.90;;;;;;5147347;27;20197;-80
2021/04/29 08:35:45;;;;;;;6.93;4.47;;;15.40;99.90;;;;;;5114592;27;20430;-80
2021/04/29 08:38:11;;;;;;;4.47;3.73;;;15.50;99.90;;;;;;5149237;27;20532;-80
2021/04/29 08:40:37;;;;;;;4.53;4.07;;;15.60;99.90;;;;;;5148088;27;20185;-80
2021/04/29 08:43:02;;;;;;;5.97;3.60;;;15.70;99.90;;;;;;5135891;27;20243;-80
2021/04/29 08:45:29;;;;;;;5.57;4.00;;;15.50;99.90;;;;;;5090281;28;20522;-80
2021/04/29 08:47:56;;;;;;;5.40;3.83;;;15.10;99.90;;;;;;5106268;28;20178;-80
2021/04/29 08:50:23;;;;;;;4.37;3.97;;;15.10;99.90;;;;;;5099180;28;20431;-80
2021/04/29 08:52:49;;;;;;;5.33;4.03;;;15.40;99.90;;;;;;5128528;28;20411;-80
2021/04/29 08:55:18;;;;;;;4.20;3.47;;;15.30;99.90;;;;;;5131034;27;20412;-79
2021/04/29 08:57:44;;;;;;;5.23;4.80;;;14.80;99.90;;;;;;5130557;27;20515;-80
2021/04/29 09:00:13;;;;;;;3.47;3.07;;;14.80;99.90;;;;;;5126701;27;20488;-79
2021/04/29 09:02:39;;;;;;;3.03;2.73;;;15.20;99.90;;;;;;5130510;27;20404;-80
2021/04/29 09:05:17;;;;;;;5.13;3.80;;;15.30;99.90;;;;;;5133203;27;20417;-79
2021/04/29 09:07:59;;;;;;;3.90;3.47;;;15.40;99.90;;;;;;5114062;28;20435;-79
2021/04/29 09:10:47;;;;;;;3.00;2.80;;;15.40;99.90;;;;;;5126947;28;20900;-79
2021/04/29 09:13:16;;;;;;;4.03;3.07;;;15.50;99.90;;;;;;5109739;28;20423;-80
2021/04/29 09:15:42;;;;;;;2.90;2.70;;;15.60;99.90;;;;;;5130990;27;20418;-79
2021/04/29 09:18:15;;;;;;;3.27;3.07;;;15.50;99.90;;;;;;5131901;27;20519;-79
2021/04/29 09:21:01;;;;;;;4.57;2.90;;;15.60;99.90;;;;;;5079434;27;20710;-80
2021/04/29 09:23:29;;;;;;;3.27;2.97;;;15.80;99.90;;;;;;5103566;28;20494;-78
2021/04/29 09:25:59;;;;;;;3.70;2.90;;;15.90;99.90;;;;;;5114485;28;20402;-80
2021/04/29 09:28:42;;;;;;;3.70;3.37;;;15.90;99.90;;;;;;5129049;27;20486;-81
2021/04/29 09:31:11;;;;;;;5.10;3.90;;;15.20;99.90;;;;;;5123747;28;20432;-80
2021/04/29 09:33:40;;;;;;;3.33;2.93;;;15.70;99.90;;;;;;5126714;27;20460;-80
2021/04/29 09:36:08;;;;;;;2.87;2.57;;;16.10;99.90;;;;;;5123579;27;20507;-81
2021/04/29 09:38:37;;;;;;;4.47;3.80;;;16.10;99.90;;;;;;5060530;28;20434;-79
2021/04/29 09:41:04;;;;;;;2.33;2.13;;;16.10;99.90;;;;;;5039916;28;20641;-80
2021/04/29 09:43:30;;;;;;;2.70;2.50;;;16.10;99.90;;;;;;5091061;28;20463;-81
2021/04/29 09:45:59;;;;;;;2.80;2.40;;;16.10;99.90;;;;;;5089086;28;20436;-81
2021/04/29 09:48:34;;;;;;;2.60;2.40;;;15.80;99.90;;;;;;5095407;28;20224;-82
2021/04/29 09:51:00;;;;;;;3.07;2.77;;;16.20;99.90;;;;;;5083834;28;20409;-81
2021/04/29 09:53:36;;;;;;;3.13;2.87;;;16.20;99.90;;;;;;5095513;28;20435;-82
2021/04/29 09:56:08;;;;;;;3.53;2.50;;;16.10;99.90;;;;;;5096059;28;20170;-81
2021/04/29 09:58:34;;;;;;;2.60;2.40;;;16.50;99.90;;;;;;5084532;28;20513;-81
2021/04/29 10:01:00;;;;;;;3.27;2.83;;;16.50;99.90;;;;;;5097130;28;20504;-81
2021/04/29 10:03:26;;;;;;;3.40;3.10;;;16.10;99.90;;;;;;5080073;28;20425;-81
2021/04/29 10:05:54;;;;;;;3.63;3.07;;;16.40;99.90;;;;;;5054275;28;20487;-82
2021/04/29 10:08:26;;;;;;;3.47;2.80;;;16.60;99.90;;;;;;5084107;28;20214;-81
2021/04/29 10:10:56;;;;;;;3.67;2.77;;;16.70;99.90;;;;;;5104345;28;20491;-82
2021/04/29 10:13:29;;;;;;;3.73;3.33;;;16.90;99.90;;;;;;5136984;27;20411;-82
2021/04/29 10:15:58;;;;;;;4.10;2.77;;;16.80;99.90;;;;;;5104643;28;20776;-81
2021/04/29 10:18:25;;;;;;;4.83;3.37;;;17.30;99.90;;;;;;5140136;27;20437;-80
2021/04/29 10:20:53;;;;;;;4.00;3.20;;;17.50;99.90;;;;;;5123595;27;20414;-81
2021/04/29 10:23:25;;;;;;;2.60;2.40;;;17.40;99.90;;;;;;5142731;27;20425;-82
2021/04/29 10:25:55;;;;;;;5.57;2.90;;;17.70;99.90;;;;;;5091249;27;20410;-80
2021/04/29 10:28:32;;;;;;;6.17;3.60;;;17.40;99.90;;;;;;5121764;27;20415;-81
2021/04/29 10:30:58;;;;;;;4.30;3.80;;;17.70;99.90;;;;;;5021314;28;20444;-81
2021/04/29 10:33:24;;;;;;;4.47;2.50;;;17.90;99.90;;;;;;5023151;28;20435;-81
2021/04/29 10:35:53;;;;;;;4.23;3.57;;;17.90;99.90;;;;;;5019365;28;20482;-81
2021/04/29 10:38:33;;;;;;;4.03;3.33;;;17.40;99.90;;;;;;5012819;28;20169;-81
2021/04/29 10:41:02;;;;;;;2.97;2.73;;;17.30;99.90;;;;;;5022240;28;20423;-82
2021/04/29 10:43:36;;;;;;;3.70;3.30;;;17.80;99.90;;;;;;5020846;28;20471;-82
2021/04/29 10:46:05;;;;;;;4.13;3.50;;;17.80;99.90;;;;;;5006949;28;20522;-82
2021/04/29 10:48:34;;;;;;;3.83;3.13;;;18.30;99.90;;;;;;5008087;28;20416;-81
2021/04/29 10:51:07;;;;;;;3.77;3.37;;;18.70;99.90;;;;;;5008273;28;20459;-81
2021/04/29 10:53:34;;;;;;;3.57;3.27;;;18.60;99.90;;;;;;5015344;28;20563;-81
2021/04/29 10:56:12;;;;;;;5.10;3.80;;;18.50;99.90;;;;;;5027167;28;20423;-79
2021/04/29 10:58:38;;;;;;;5.07;3.50;;;18.70;99.90;;;;;;5024817;28;20426;-80
2021/04/29 11:01:12;;;;;;;3.80;2.87;;;18.90;99.90;;;;;;5036963;28;20512;-80
2021/04/29 11:03:42;;;;;;;3.30;3.00;;;19.00;99.90;;;;;;5118476;28;20317;-81
2021/04/29 11:06:30;;;;;;;3.87;3.53;;;18.40;99.90;;;;;;5123528;28;20902;-80
2021/04/29 11:08:58;;;;;;;2.90;2.70;;;17.60;99.90;;;;;;5120098;28;20444;-79
2021/04/29 11:11:29;;;;;;;3.20;2.87;;;18.30;99.90;;;;;;5108621;28;20821;-81
2021/04/29 11:13:59;;;;;;;3.10;2.80;;;19.10;99.90;;;;;;5121650;28;20450;-81
2021/04/29 11:16:24;;;;;;;3.27;3.07;;;19.30;99.90;;;;;;5101301;27;20492;-80
2021/04/29 11:18:50;;;;;;;3.33;3.03;;;19.70;99.90;;;;;;5105087;28;20964;-80
2021/04/29 11:21:25;;;;;;;6.13;3.73;;;18.50;99.90;;;;;;5118954;28;20171;-81
2021/04/29 11:23:52;;;;;;;4.27;3.73;;;18.60;99.90;;;;;;5117794;28;20174;-81
2021/04/29 11:26:22;;;;;;;6.73;3.87;;;18.90;99.90;;;;;;5127421;27;20469;-81
2021/04/29 11:28:51;;;;;;;4.17;3.77;;;18.60;99.90;;;;;;5119614;27;20420;-80
2021/04/29 11:31:18;;;;;;;8.53;4.20;;;18.90;99.90;;;;;;5105119;28;20428;-80
2021/04/29 11:33:49;;;;;;;9.60;3.80;;;18.80;99.90;;;;;;5122565;28;20427;-80
2021/04/29 11:36:19;;;;;;;3.57;3.27;;;18.30;99.90;;;;;;5106711;28;20444;-80
2021/04/29 11:38:50;;;;;;;3.40;3.20;;;17.50;99.90;;;;;;5119951;28;20456;-80
2021/04/29 11:41:17;;;;;;;6.00;3.30;;;17.50;99.90;;;;;;5123557;28;20415;-83
2021/04/29 11:43:42;;;;;;;3.50;3.30;;;17.20;99.90;;;;;;5120286;27;20457;-82
2021/04/29 11:46:20;;;;;;;3.97;3.50;;;17.30;99.90;;;;;;5146114;27;20505;-82
2021/04/29 11:48:54;;;;;;;4.57;3.97;;;17.30;99.90;;;;;;5136721;27;20176;-82
2021/04/29 11:51:22;;;;;;;5.43;4.10;;;17.40;99.90;;;;;;5124324;27;20493;-81
2021/04/29 11:53:49;;;;;;;4.13;3.83;;;17.00;99.90;;;;;;5123907;27;20407;-82
2021/04/29 11:56:15;;;;;;;4.20;3.80;;;16.50;99.90;;;;;;5093653;27;20418;-81
2021/04/29 11:58:41;;;;;;;5.30;4.00;;;16.10;99.90;;;;;;5087536;28;20439;-81
2021/04/29 12:01:15;;;;;;;4.67;4.27;;;16.20;99.90;;;;;;5131768;27;20880;-81
2021/04/29 12:03:43;;;;;;;5.13;4.73;;;16.30;99.90;;;;;;5102565;27;20751;-81
2021/04/29 12:06:09;;;;;;;4.73;4.43;;;16.30;99.90;;;;;;5122877;27;20440;-81
2021/04/29 12:08:54;;;;;;;4.60;4.20;;;16.40;99.90;;;;;;5123101;27;20436;-82
2021/04/29 12:11:20;;;;;;;5.23;4.57;;;16.50;99.90;;;;;;5105398;28;20424;-82
2021/04/29 12:13:48;;;;;;;5.00;4.50;;;16.40;99.90;;;;;;5107111;28;20438;-81
2021/04/29 12:16:22;;;;;;;6.05;4.93;;;16.40;99.90;;;;;;5102459;28;20415;-82
2021/04/29 12:18:51;;;;;;;5.77;5.17;;;16.20;99.90;;;;;;5121436;28;20196;-81
2021/04/29 12:21:18;;;;;;;5.80;4.27;;;16.20;99.90;;;;;;5107522;28;20439;-82
2021/04/29 12:23:45;;;;;;;9.23;4.07;;;16.20;99.90;;;;;;5070119;28;20419;-80
2021/04/29 12:26:12;;;;;;;4.27;3.87;;;16.30;99.90;;;;;;5116709;28;20454;-79
2021/04/29 12:28:41;;;;;;;3.43;2.97;;;16.00;99.90;;;;;;5121641;28;20400;-79
2021/04/29 12:31:22;;;;;;;3.27;2.97;;;15.70;99.90;;;;;;5112573;27;20405;-79
2021/04/29 12:33:52;;;;;;;3.07;2.87;;;15.20;99.90;;;;;;5120950;28;20412;-79
2021/04/29 12:36:18;;;;;;;17.53;3.43;;;14.80;99.90;;;;;;5121126;28;20420;-80
2021/04/29 12:38:44;;;;;;;9.10;3.33;;;14.70;99.90;;;;;;5125509;27;20419;-82
2021/04/29 12:41:10;;;;;;;3.77;3.40;;;14.40;99.90;;;;;;5120509;27;20757;-81
2021/04/29 12:43:36;;;;;;;3.70;3.30;;;14.20;99.90;;;;;;5142247;27;20561;-81
2021/04/29 12:46:05;;;;;;;4.00;3.60;;;13.70;99.90;;;;;;5141613;27;20471;-81